Time;durP1;ratioP1;P1;durP2;ratioP2;P2;SDS_P1;SDS_P2;PMS_P1;PMS_P2;Temp;Humidity;BMP_temperature;BMP_pressure;BME280_temperature;BME280_humidity;BME280_pressure;Samples;Min_cycle;Max_cycle;Signal;HPM_P1;HPM_P2
2023/12/24 00:00:19;;;;;;;;;;;;;;;14.13;32.68;97173.75;104833;1254;72529;-59
2023/12/24 00:02:47;;;;;;;4.10;2.40;;;;;;;14.36;32.59;97175.05;104326;1260;61654;-59
2023/12/24 00:05:16;;;;;;;2.90;2.70;;;;;;;14.32;32.59;97180.52;104669;1254;59973;-61
2023/12/24 00:07:43;;;;;;;;;;;;;;;14.13;32.95;97182.88;104812;1258;72894;-60
2023/12/24 00:10:11;;;;;;;5.50;2.80;;;;;;;14.02;32.96;97185.88;104436;1266;69053;-59
2023/12/24 00:12:42;;;;;;;4.50;3.10;;;;;;;14.08;33.06;97190.63;104373;1258;72982;-59
2023/12/24 00:15:10;;;;;;;7.50;2.80;;;;;;;14.19;32.88;97190.08;104819;1253;60598;-60
2023/12/24 00:17:37;;;;;;;4.30;2.80;;;;;;;14.24;33.17;97190.63;105203;1254;60775;-60
2023/12/24 00:20:06;;;;;;;;;;;;;;;14.22;32.90;97192.78;104850;1254;72994;-59
2023/12/24 00:22:35;;;;;;;4.00;2.80;;;;;;;14.27;32.77;97192.61;104726;1254;68471;-59
2023/12/24 00:25:04;;;;;;;6.00;3.00;;;;;;;14.31;32.65;97191.95;104947;1254;72214;-58
2023/12/24 00:27:31;;;;;;;4.00;2.70;;;;;;;14.21;32.70;97194.97;104534;1254;61545;-59
2023/12/24 00:30:00;;;;;;;3.70;2.50;;;;;;;14.03;33.01;97199.13;104803;1257;59765;-59
2023/12/24 00:32:30;;;;;;;3.60;2.40;;;;;;;14.12;33.01;97207.30;104402;1270;72026;-60
2023/12/24 00:34:58;;;;;;;4.00;2.30;;;;;;;14.20;32.97;97206.39;104791;1257;69111;-58
2023/12/24 00:37:25;;;;;;;;;;;;;;;14.05;32.93;97207.78;104992;1254;72350;-59
2023/12/24 00:39:53;;;;;;;3.30;2.70;;;;;;;14.12;33.01;97198.14;104796;1255;60683;-59
2023/12/24 00:42:23;;;;;;;;;;;;;;;14.14;33.10;97211.55;104689;1257;60751;-59
2023/12/24 00:44:50;;;;;;;2.80;2.40;;;;;;;14.18;33.03;97213.08;104796;1265;73393;-64
2023/12/24 00:47:18;;;;;;;;;;;;;;;14.05;32.98;97218.71;104678;1257;69121;-59
2023/12/24 00:49:46;;;;;;;3.90;2.60;;;;;;;14.19;33.00;97218.47;105430;1253;71110;-60
2023/12/24 00:52:14;;;;;;;5.30;2.70;;;;;;;14.34;32.97;97216.84;105066;1254;60961;-60
2023/12/24 00:54:42;;;;;;;3.40;2.80;;;;;;;14.61;32.44;97221.95;104841;1254;59778;-60
2023/12/24 00:57:10;;;;;;;3.70;2.50;;;;;;;14.61;32.65;97225.31;104592;1257;75937;-60
2023/12/24 00:59:38;;;;;;;5.50;2.90;;;;;;;14.47;32.58;97226.27;104858;1258;68990;-60
2023/12/24 01:02:07;;;;;;;5.30;2.70;;;;;;;14.70;32.34;97223.21;104886;1257;72345;-60
2023/12/24 01:04:35;;;;;;;4.90;3.20;;;;;;;14.68;32.35;97228.19;104988;1255;60956;-61
2023/12/24 01:07:05;;;;;;;4.80;3.30;;;;;;;14.66;32.22;97226.84;104619;1254;59659;-64
2023/12/24 01:09:35;;;;;;;3.90;2.30;;;;;;;14.85;32.15;97224.55;104747;1257;74169;-60
2023/12/24 01:12:04;;;;;;;4.40;2.70;;;;;;;14.94;32.14;97225.85;104633;1255;69117;-60
2023/12/24 01:14:32;;;;;;;4.10;2.70;;;;;;;14.74;32.29;97225.14;105005;1255;72939;-60
2023/12/24 01:16:59;;;;;;;3.40;2.70;;;;;;;14.65;32.32;97222.14;104313;1257;62307;-59
2023/12/24 01:19:28;;;;;;;6.50;3.10;;;;;;;14.65;32.37;97226.77;105184;1256;59886;-60
2023/12/24 01:21:55;;;;;;;;;;;;;;;14.57;32.48;97230.51;105364;1254;72816;-60
2023/12/24 01:24:23;;;;;;;7.50;2.90;;;;;;;14.46;32.74;97234.23;104740;1269;69179;-61
2023/12/24 01:26:52;;;;;;;;;;;;;;;14.31;32.86;97235.77;104436;1257;71906;-60
2023/12/24 01:29:21;;;;;;;6.00;2.80;;;;;;;14.31;32.79;97241.21;104288;1260;60970;-60
2023/12/24 01:31:49;;;;;;;;;;;;;;;14.36;32.92;97240.96;104645;1253;60511;-59
2023/12/24 01:34:17;;;;;;;4.30;2.80;;;;;;;14.35;32.76;97240.67;104865;1270;73674;-60
2023/12/24 01:36:45;;;;;;;4.30;2.80;;;;;;;14.41;32.69;97247.36;104875;1254;68178;-59
2023/12/24 01:39:13;;;;;;;3.80;3.10;;;;;;;14.39;32.63;97246.63;104573;1255;72100;-60
2023/12/24 01:41:43;;;;;;;7.70;3.10;;;;;;;14.12;32.94;97247.63;104878;1254;60647;-59
2023/12/24 01:44:11;;;;;;;5.80;3.00;;;;;;;14.38;32.66;97248.83;104818;1254;60562;-58
2023/12/24 01:46:39;;;;;;;;;;;;;;;14.48;32.59;97249.99;104993;1258;74080;-59
2023/12/24 01:49:07;;;;;;;5.30;2.70;;;;;;;14.71;32.42;97258.52;104702;1260;69133;-60
2023/12/24 01:51:34;;;;;;;;;;;;;;;14.61;32.51;97261.10;104865;1251;72466;-60
2023/12/24 01:54:02;;;;;;;;;;;;;;;14.50;32.79;97269.69;104857;1253;61037;-60
2023/12/24 01:56:32;;;;;;;3.80;2.70;;;;;;;15.59;31.69;97269.02;104625;1254;60642;-60
2023/12/24 01:59:00;;;;;;;4.90;3.10;;;;;;;14.36;32.53;97271.43;104447;1254;74174;-58
2023/12/24 02:01:28;;;;;;;4.30;2.70;;;;;;;14.24;32.72;97272.91;104498;1254;70343;-59
2023/12/24 02:03:56;;;;;;;;;;;;;;;14.26;32.81;97273.05;104766;1257;72192;-60
2023/12/24 02:06:24;;;;;;;4.80;3.20;;;;;;;14.31;32.74;97275.41;104758;1253;60586;-59
2023/12/24 02:08:55;;;;;;;4.20;2.80;;;;;;;14.30;32.62;97277.77;104728;1254;59955;-59
2023/12/24 02:11:22;;;;;;;8.00;2.70;;;;;;;14.28;32.75;97285.63;104509;1257;74025;-60
2023/12/24 02:13:50;;;;;;;;;;;;;;;14.13;32.97;97287.34;104484;1263;69679;-59
2023/12/24 02:16:21;;;;;;;7.20;3.00;;;;;;;14.21;32.78;97288.02;104859;1260;72360;-60
2023/12/24 02:18:49;;;;;;;6.90;2.90;;;;;;;14.25;32.91;97295.22;104781;1256;61559;-58
2023/12/24 02:21:17;;;;;;;;;;;;;;;14.27;32.81;97296.62;104531;1259;61570;-59
2023/12/24 02:23:45;;;;;;;6.80;2.90;;;;;;;14.37;32.63;97298.48;105134;1259;73988;-59
2023/12/24 02:26:18;;;;;;;5.00;3.10;;;;;;;14.24;32.71;97296.50;105307;1256;69118;-60
2023/12/24 02:28:48;;;;;;;3.30;2.70;;;;;;;14.29;32.77;97294.45;104646;1254;72510;-59
2023/12/24 02:31:16;;;;;;;4.00;2.90;;;;;;;14.20;32.92;97297.98;104741;1251;62116;-59
2023/12/24 02:33:44;;;;;;;8.00;2.90;;;;;;;14.23;32.87;97302.46;104839;1254;60497;-59
2023/12/24 02:36:12;;;;;;;7.50;3.00;;;;;;;14.24;32.88;97304.59;104581;1260;73742;-59
2023/12/24 02:38:40;;;;;;;;;;;;;;;14.20;32.93;97310.48;105058;1255;69038;-60
2023/12/24 02:41:08;;;;;;;4.50;2.60;;;;;;;14.07;33.09;97315.04;104918;1254;72503;-59
2023/12/24 02:43:35;;;;;;;5.70;2.60;;;;;;;14.05;33.25;97320.55;104638;1257;60591;-59
2023/12/24 02:46:04;;;;;;;4.80;2.90;;;;;;;14.12;33.20;97321.11;104556;1256;60508;-60
2023/12/24 02:48:32;;;;;;;5.40;3.10;;;;;;;14.28;32.77;97318.41;104716;1254;74086;-62
2023/12/24 02:51:00;;;;;;;5.40;3.50;;;;;;;14.37;32.74;97315.42;104977;1253;69114;-60
2023/12/24 02:53:27;;;;;;;;;;;;;;;14.25;32.87;97315.14;104803;1254;72616;-59
2023/12/24 02:55:55;;;;;;;5.00;2.40;;;;;;;14.30;32.63;97318.90;104643;1260;60667;-59
2023/12/24 02:58:23;;;;;;;5.30;2.60;;;;;;;14.18;32.74;97324.40;104611;1254;60562;-60
2023/12/24 03:00:51;;;;;;;3.30;2.60;;;;;;;14.14;32.85;97325.36;104906;1253;74196;-59
2023/12/24 03:03:19;;;;;;;;;;;;;;;14.02;32.76;97330.52;104594;1258;69577;-59
2023/12/24 03:05:47;;;;;;;3.10;2.40;;;;;;;13.83;33.08;97333.48;104746;1256;72378;-59
2023/12/24 03:08:15;;;;;;;4.50;3.10;;;;;;;13.72;33.12;97340.65;104392;1255;60675;-65
2023/12/24 03:10:43;;;;;;;3.70;2.80;;;;;;;13.66;33.23;97348.83;104657;1254;60524;-60
2023/12/24 03:13:10;;;;;;;;;;;;;;;13.70;33.35;97353.70;104994;1251;73582;-59
2023/12/24 03:15:39;;;;;;;5.60;2.50;;;;;;;13.80;33.14;97360.68;105030;1256;68620;-59
2023/12/24 03:18:07;;;;;;;8.60;3.30;;;;;;;13.77;33.27;97356.52;105315;1254;72269;-59
2023/12/24 03:20:35;;;;;;;5.80;3.10;;;;;;;13.61;33.34;97365.46;104725;1256;60662;-59
2023/12/24 03:23:03;;;;;;;5.80;2.70;;;;;;;13.67;33.36;97371.38;104548;1254;60566;-59
2023/12/24 03:25:33;;;;;;;3.90;3.00;;;;;;;13.65;33.36;97377.94;104724;1257;72611;-59
2023/12/24 03:28:01;;;;;;;3.80;2.60;;;;;;;13.67;33.41;97372.82;104540;1257;69263;-59
2023/12/24 03:30:28;;;;;;;;;;;;;;;13.77;33.36;97371.36;104750;1256;72347;-59
2023/12/24 03:32:56;;;;;;;;;;;;;;;13.82;33.19;97376.38;104393;1263;60901;-58
2023/12/24 03:35:25;;;;;;;7.00;3.00;;;;;;;13.93;33.13;97379.23;104457;1254;60517;-59
2023/12/24 03:37:53;;;;;;;4.50;2.60;;;;;;;13.99;32.91;97379.41;104891;1254;74444;-60
2023/12/24 03:40:21;;;;;;;4.60;3.00;;;;;;;13.77;32.96;97375.92;104484;1259;69210;-59
2023/12/24 03:42:49;;;;;;;3.90;2.80;;;;;;;13.68;33.26;97374.62;105052;1253;71090;-60
2023/12/24 03:45:18;;;;;;;4.90;2.90;;;;;;;13.73;33.12;97374.90;104585;1257;60428;-59
2023/12/24 03:47:45;;;;;;;3.50;2.50;;;;;;;13.79;33.18;97380.84;104627;1256;60459;-61
2023/12/24 03:50:15;;;;;;;5.80;2.90;;;;;;;13.88;32.92;97384.83;104454;1264;73792;-59
2023/12/24 03:52:43;;;;;;;3.90;2.60;;;;;;;13.95;32.86;97386.82;104949;1259;69179;-59
2023/12/24 03:55:10;;;;;;;;;;;;;;;13.99;32.67;97391.71;104744;1254;72366;-59
2023/12/24 03:57:38;;;;;;;;;;;;;;;14.05;32.78;97394.31;104650;1254;60551;-58
2023/12/24 04:00:07;;;;;;;4.00;2.60;;;;;;;14.19;32.59;97394.61;104573;1253;60101;-59
2023/12/24 04:02:36;;;;;;;5.30;3.20;;;;;;;14.52;32.08;97397.91;104857;1252;72671;-59
2023/12/24 04:05:04;;;;;;;4.60;2.60;;;;;;;14.45;32.06;97401.31;104723;1254;69408;-59
2023/12/24 04:07:32;;;;;;;4.00;3.00;;;;;;;14.18;32.39;97403.88;104465;1260;71901;-59
2023/12/24 04:10:00;;;;;;;7.40;3.10;;;;;;;14.11;32.52;97407.40;104564;1256;61297;-59
2023/12/24 04:12:28;;;;;;;;;;;;;;;14.12;32.54;97407.95;104689;1253;60914;-60
2023/12/24 04:14:55;;;;;;;3.60;2.50;;;;;;;14.07;32.54;97409.52;104605;1254;74212;-59
2023/12/24 04:17:23;;;;;;;;;;;;;;;13.93;32.79;97406.66;104619;1257;68274;-60
2023/12/24 04:19:52;;;;;;;5.70;3.00;;;;;;;13.74;32.79;97409.27;104570;1265;74373;-60
2023/12/24 04:22:20;;;;;;;3.70;2.50;;;;;;;13.59;32.95;97408.40;104935;1254;60605;-59
2023/12/24 04:24:47;;;;;;;5.20;2.80;;;;;;;13.62;33.01;97412.52;104782;1259;60905;-59
2023/12/24 04:27:15;;;;;;;;;;;;;;;13.63;33.21;97416.46;104938;1254;72572;-60
2023/12/24 04:29:42;;;;;;;4.40;2.60;;;;;;;13.71;33.03;97420.13;104694;1263;69624;-59
2023/12/24 04:32:12;;;;;;;3.40;2.50;;;;;;;13.77;32.83;97416.48;104504;1259;73101;-60
2023/12/24 04:34:40;;;;;;;4.80;2.60;;;;;;;13.77;32.76;97418.55;104646;1266;61171;-65
2023/12/24 04:37:08;;;;;;;;;;;;;;;13.84;32.74;97421.42;105590;1254;60609;-59
2023/12/24 04:39:35;;;;;;;4.80;2.60;;;;;;;13.94;32.60;97422.97;105307;1252;73734;-60
2023/12/24 04:42:04;;;;;;;5.30;2.30;;;;;;;14.02;32.54;97421.18;108375;1252;69680;-59
2023/12/24 04:44:32;;;;;;;5.50;2.40;;;;;;;14.04;32.68;97421.39;108410;1252;72927;-60
2023/12/24 04:47:00;;;;;;;4.50;2.70;;;;;;;14.06;32.28;97428.88;108130;1253;60973;-59
2023/12/24 04:49:27;;;;;;;3.30;2.30;;;;;;;14.24;32.32;97427.66;108551;1253;59745;-60
2023/12/24 04:51:55;;;;;;;5.90;2.90;;;;;;;14.12;32.35;97430.13;108513;1253;73468;-60
2023/12/24 04:54:23;;;;;;;5.40;3.20;;;;;;;14.21;32.42;97434.80;108306;1252;68053;-60
2023/12/24 04:56:51;;;;;;;3.30;2.50;;;;;;;14.29;32.35;97435.06;108133;1252;72907;-61
2023/12/24 04:59:18;;;;;;;5.70;2.90;;;;;;;14.10;32.45;97441.44;108432;1253;61520;-61
2023/12/24 05:01:50;;;;;;;6.00;3.00;;;;;;;13.96;32.62;97442.55;108210;1252;59983;-59
2023/12/24 05:04:18;;;;;;;3.40;2.30;;;;;;;13.84;32.85;97444.86;108538;1250;72840;-59
2023/12/24 05:06:46;;;;;;;;;;;;;;;13.99;32.76;97446.16;108309;1252;69131;-58
2023/12/24 05:09:13;;;;;;;;;;;;;;;14.18;32.44;97448.67;108539;1250;74017;-59
2023/12/24 05:11:40;;;;;;;;;;;;;;;14.22;32.45;97451.77;108344;1253;60589;-59
2023/12/24 05:14:08;;;;;;;3.00;2.70;;;;;;;14.29;32.53;97454.65;108564;1250;59507;-59
2023/12/24 05:16:36;;;;;;;;;;;;;;;14.14;32.73;97458.55;108443;1252;74595;-59
2023/12/24 05:19:04;;;;;;;4.30;2.70;;;;;;;14.07;32.65;97459.00;108313;1253;69550;-59
2023/12/24 05:21:31;;;;;;;6.80;3.20;;;;;;;14.11;32.58;97459.31;108548;1252;72938;-59
2023/12/24 05:23:59;;;;;;;3.40;2.70;;;;;;;14.24;32.60;97460.42;108111;1255;60652;-59
2023/12/24 05:26:27;;;;;;;;;;;;;;;14.10;32.67;97463.99;108519;1253;59719;-59
2023/12/24 05:28:56;;;;;;;4.50;2.70;;;;;;;14.03;32.61;97465.86;108320;1254;73542;-59
2023/12/24 05:31:24;;;;;;;;;;;;;;;14.05;32.68;97468.67;108330;1251;69202;-60
2023/12/24 05:33:52;;;;;;;;;;;;;;;14.02;32.59;97467.38;108362;1253;71419;-59
2023/12/24 05:36:20;;;;;;;5.00;2.90;;;;;;;14.07;32.59;97471.32;108285;1253;62638;-60
2023/12/24 05:38:48;;;;;;;3.80;3.30;;;;;;;14.09;32.65;97471.15;108358;1253;60357;-59
2023/12/24 05:41:16;;;;;;;4.20;3.00;;;;;;;14.17;32.49;97473.34;108355;1253;72810;-60
2023/12/24 05:43:43;;;;;;;;;;;;;;;14.23;32.44;97475.63;108359;1253;69031;-60
2023/12/24 05:46:12;;;;;;;4.20;3.00;;;;;;;14.06;32.62;97481.02;108302;1252;72501;-61
2023/12/24 05:51:44;;;;;;;5.20;3.20;;;;;;;14.06;32.76;97482.14;101413;1294;602220;-60
2023/12/24 05:54:12;;;;;;;4.10;3.20;;;;;;;13.93;32.85;97485.45;103914;1269;60998;-59
2023/12/24 05:56:39;;;;;;;5.20;3.60;;;;;;;14.13;32.69;97486.58;103707;1267;60099;-59
2023/12/24 05:59:07;;;;;;;;;;;;;;;13.90;32.78;97492.88;103617;1270;71218;-60
2023/12/24 06:01:35;;;;;;;5.60;3.40;;;;;;;14.12;32.52;97497.04;103717;1267;71222;-59
2023/12/24 06:04:03;;;;;;;;;;;;;;;14.21;32.41;97499.66;103519;1271;72534;-58
2023/12/24 06:06:31;;;;;;;7.40;3.20;;;;;;;14.09;32.44;97507.23;103892;1282;139221;-59
2023/12/24 06:08:59;;;;;;;5.20;3.50;;;;;;;14.05;32.53;97508.59;104039;1266;59812;-63
2023/12/24 06:11:26;;;;;;;;;;;;;;;14.04;32.61;97517.77;104304;1269;72270;-62
2023/12/24 06:13:54;;;;;;;5.90;3.00;;;;;;;14.13;32.51;97520.74;104232;1268;69750;-62
2023/12/24 06:16:23;;;;;;;5.80;3.40;;;;;;;14.28;32.56;97521.91;104460;1266;71590;-63
2023/12/24 06:18:51;;;;;;;5.70;3.50;;;;;;;14.38;32.15;97532.21;104128;1269;61603;-65
2023/12/24 06:21:19;;;;;;;4.10;3.50;;;;;;;13.98;32.63;97540.13;103819;1264;59647;-63
2023/12/24 06:23:49;;;;;;;6.10;3.80;;;;;;;13.89;33.06;97539.52;104346;1263;74284;-62
2023/12/24 06:26:17;;;;;;;6.00;3.70;;;;;;;13.81;32.88;97543.04;104784;1263;68480;-63
2023/12/24 06:28:47;;;;;;;;;;;;;;;13.71;33.06;97541.10;103944;1279;72626;-63
2023/12/24 06:31:22;;;;;;;7.40;3.90;;;;;;;13.72;33.15;97543.44;104120;1269;60640;-62
2023/12/24 06:33:50;;;;;;;5.70;3.70;;;;;;;13.74;33.23;97546.48;104047;1278;61186;-63
2023/12/24 06:36:18;;;;;;;5.00;3.60;;;;;;;13.86;33.21;97546.10;104896;1255;72894;-62
2023/12/24 06:38:46;;;;;;;;;;;;;;;13.84;33.13;97550.36;104621;1254;70126;-63
2023/12/24 06:41:14;;;;;;;6.20;3.20;;;;;;;13.86;33.10;97552.44;105139;1256;72546;-60
2023/12/24 06:43:42;;;;;;;5.60;3.30;;;;;;;13.93;33.17;97557.65;105087;1258;62071;-60
2023/12/24 06:46:12;;;;;;;;;;;;;;;14.00;33.03;97556.48;105159;1251;59807;-61
2023/12/24 06:48:40;;;;;;;6.20;3.50;;;;;;;13.95;33.20;97557.27;108461;1250;73232;-60
2023/12/24 06:51:08;;;;;;;5.00;3.50;;;;;;;13.79;33.44;97558.31;108440;1253;69441;-60
2023/12/24 06:53:36;;;;;;;7.90;3.70;;;;;;;13.82;33.68;97561.22;108484;1251;71490;-62
2023/12/24 06:56:04;;;;;;;6.30;3.60;;;;;;;13.84;46.20;97568.45;108501;1251;60677;-60
2023/12/24 06:58:32;;;;;;;8.10;4.00;;;;;;;13.89;37.75;97564.34;108245;1250;60156;-62
2023/12/24 07:01:00;;;;;;;9.00;4.30;;;;;;;13.81;37.72;97564.88;108493;1254;73265;-62
2023/12/24 07:03:30;;;;;;;6.40;3.70;;;;;;;13.86;37.21;97569.55;108474;1251;69018;-61
2023/12/24 07:05:59;;;;;;;6.80;3.40;;;;;;;13.92;36.60;97571.23;108399;1250;73009;-62
2023/12/24 07:08:29;;;;;;;8.20;3.70;;;;;;;22.37;33.61;97566.05;108433;1251;61103;-60
2023/12/24 07:10:57;;;;;;;4.40;3.80;;;;;;;15.39;36.73;97579.66;108535;1249;60646;-61
2023/12/24 07:13:25;;;;;;;6.00;3.90;;;;;;;15.06;35.71;97577.42;108498;1251;72787;-61
2023/12/24 07:15:53;;;;;;;3.40;3.10;;;;;;;15.27;35.93;97577.77;108494;1251;69184;-60
2023/12/24 07:18:20;;;;;;;;;;;;;;;13.82;36.37;97576.92;108476;1251;71216;-61
2023/12/24 07:20:49;;;;;;;6.70;3.90;;;;;;;13.23;39.26;97589.50;108633;1251;60546;-61
2023/12/24 07:23:17;;;;;;;5.80;3.50;;;;;;;14.89;37.68;97589.61;108573;1250;60699;-61
2023/12/24 07:25:45;;;;;;;4.40;3.30;;;;;;;14.75;36.69;97593.03;108505;1250;73316;-61
2023/12/24 07:28:12;;;;;;;;;;;;;;;13.74;38.40;97594.55;108514;1254;69203;-62
2023/12/24 07:30:40;;;;;;;;;;;;;;;13.62;39.92;97596.52;108525;1249;73857;-61
2023/12/24 07:33:07;;;;;;;4.20;2.90;;;;;;;15.08;37.38;97594.69;108580;1251;61587;-61
2023/12/24 07:35:39;;;;;;;9.50;3.40;;;;;;;15.16;35.30;97597.34;108564;1251;59647;-61
2023/12/24 07:38:07;;;;;;;5.90;3.00;;;;;;;14.93;35.47;97600.18;108505;1249;72810;-60
2023/12/24 07:40:35;;;;;;;7.20;3.70;;;;;;;15.13;34.81;97599.19;108014;1251;68708;-61
2023/12/24 07:43:03;;;;;;;6.00;3.30;;;;;;;15.18;34.50;97610.90;108406;1254;73109;-61
2023/12/24 07:45:31;;;;;;;4.70;3.20;;;;;;;15.20;35.54;97613.05;108465;1252;60663;-61
2023/12/24 07:47:58;;;;;;;4.90;3.30;;;;;;;15.25;35.73;97614.20;108448;1251;59951;-61
2023/12/24 07:50:26;;;;;;;4.80;3.00;;;;;;;15.36;36.38;97615.48;108553;1251;73692;-62
2023/12/24 07:52:54;;;;;;;5.30;3.20;;;;;;;15.46;35.47;97615.89;108486;1251;68251;-61
2023/12/24 07:55:22;;;;;;;6.70;3.40;;;;;;;15.30;35.75;97614.10;108494;1251;71476;-61
2023/12/24 07:57:50;;;;;;;8.30;3.60;;;;;;;15.14;35.35;97620.33;108415;1251;60684;-61
2023/12/24 08:00:18;;;;;;;4.20;3.00;;;;;;;15.06;35.58;97623.89;108477;1251;59924;-61
2023/12/24 08:02:45;;;;;;;;;;;;;;;15.04;35.45;97628.10;108531;1252;73726;-61
2023/12/24 08:05:14;;;;;;;6.00;3.00;;;;;;;14.80;35.32;97634.21;108460;1254;69167;-60
2023/12/24 08:07:41;;;;;;;;;;;;;;;14.94;34.72;97639.47;108491;1254;72370;-62
2023/12/24 08:10:09;;;;;;;4.70;2.70;;;;;;;14.86;35.94;97643.23;108505;1252;60940;-63
2023/12/24 08:12:37;;;;;;;;;;;;;;;14.84;35.67;97645.69;108496;1251;59753;-62
2023/12/24 08:15:05;;;;;;;;;;;;;;;14.80;34.88;97640.23;108428;1253;72895;-64
2023/12/24 08:17:33;;;;;;;3.90;2.80;;;;;;;14.89;34.64;97644.33;108426;1251;69454;-61
2023/12/24 08:20:02;;;;;;;5.90;3.00;;;;;;;17.38;35.41;97648.27;108564;1251;72184;-60
2023/12/24 08:22:30;;;;;;;3.40;2.90;;;;;;;17.72;33.36;97647.65;108464;1251;60583;-60
2023/12/24 08:24:58;;;;;;;;;;;;;;;17.54;31.75;97650.36;108544;1250;59872;-61
2023/12/24 08:27:25;;;;;;;;;;;;;;;17.22;31.36;97645.05;108512;1250;72831;-63
2023/12/24 08:29:55;;;;;;;;;;;;;;;17.02;32.36;97652.52;108527;1251;69648;-62
2023/12/24 08:32:23;;;;;;;7.30;2.80;;;;;;;16.86;32.28;97655.15;108466;1251;72464;-63
2023/12/24 08:34:53;;;;;;;4.30;2.80;;;;;;;16.72;32.79;97660.65;108250;1251;62721;-61
2023/12/24 08:37:21;;;;;;;7.60;2.90;;;;;;;16.84;32.59;97659.21;108480;1252;59729;-63
2023/12/24 08:39:49;;;;;;;6.20;3.40;;;;;;;16.70;32.99;97659.04;108419;1250;73319;-63
2023/12/24 08:42:17;;;;;;;;;;;;;;;16.71;32.54;97655.52;108586;1251;70198;-62
2023/12/24 08:44:45;;;;;;;6.70;4.30;;;;;;;16.62;32.17;97655.23;108492;1249;72315;-62
2023/12/24 08:47:13;;;;;;;5.20;2.30;;;;;;;16.54;33.65;97654.45;108463;1254;59959;-62
2023/12/24 08:49:41;;;;;;;6.40;3.30;;;;;;;16.48;34.22;97661.60;108499;1251;60667;-62
2023/12/24 08:52:09;;;;;;;3.70;2.50;;;;;;;16.56;32.42;97663.37;108514;1251;73420;-61
2023/12/24 08:54:37;;;;;;;4.30;2.90;;;;;;;16.37;32.75;97666.32;108492;1250;69053;-61
2023/12/24 08:57:07;;;;;;;4.10;2.60;;;;;;;16.18;34.97;97672.79;108502;1251;71495;-62
2023/12/24 08:59:34;;;;;;;4.40;2.50;;;;;;;15.93;35.20;97671.08;108393;1251;59787;-60
2023/12/24 09:02:02;;;;;;;4.90;2.90;;;;;;;16.02;32.92;97671.85;108500;1249;59685;-61
2023/12/24 09:04:30;;;;;;;3.40;2.20;;;;;;;16.10;32.85;97678.00;108455;1251;72857;-61
2023/12/24 09:06:58;;;;;;;3.50;2.50;;;;;;;16.90;38.77;97680.23;108473;1251;70060;-60
2023/12/24 09:09:26;;;;;;;5.20;3.00;;;;;;;16.28;35.56;97676.42;108512;1251;72796;-61
2023/12/24 09:11:54;;;;;;;;;;;;;;;15.91;36.37;97678.40;108410;1252;60668;-61
2023/12/24 09:14:22;;;;;;;4.80;2.70;;;;;;;15.78;34.74;97680.48;108508;1250;59624;-62
2023/12/24 09:16:50;;;;;;;;;;;;;;;15.65;34.77;97678.40;108507;1254;72873;-61
2023/12/24 09:19:18;;;;;;;;;;;;;;;15.90;34.20;97679.50;108545;1251;68851;-61
2023/12/24 09:21:46;;;;;;;4.50;2.30;;;;;;;15.69;32.92;97681.56;108422;1251;72955;-61
2023/12/24 09:24:13;;;;;;;4.60;2.20;;;;;;;15.50;32.91;97673.55;108374;1251;60582;-61
2023/12/24 09:26:41;;;;;;;3.80;2.90;;;;;;;15.41;32.69;97676.15;108459;1251;59924;-61
2023/12/24 09:29:11;;;;;;;4.10;2.50;;;;;;;15.27;32.35;97681.41;108462;1251;72781;-61
2023/12/24 09:31:39;;;;;;;3.60;2.20;;;;;;;15.30;32.48;97686.19;108442;1251;69625;-62
2023/12/24 09:35:43;;;;;;;3.10;2.30;;;;;;;13.25;36.59;97697.73;101237;1292;601736;-60
2023/12/24 09:38:15;;;;;;;2.50;2.20;;;;;;;14.84;33.40;97688.83;103489;1271;60598;-60
2023/12/24 09:40:43;;;;;;;6.40;2.60;;;;;;;14.92;33.07;97691.30;104231;1259;59856;-61
2023/12/24 09:43:11;;;;;;;;;;;;;;;15.09;32.68;97688.67;104427;1265;71931;-62
2023/12/24 09:45:39;;;;;;;5.10;2.70;;;;;;;15.21;32.19;97694.98;104583;1265;69166;-61
2023/12/24 09:48:06;;;;;;;3.80;2.20;;;;;;;15.20;32.12;97697.39;107396;1259;71280;-63
2023/12/24 09:50:34;;;;;;;3.50;2.60;;;;;;;15.31;31.87;97695.64;107445;1256;61888;-63
2023/12/24 09:53:02;;;;;;;3.30;2.50;;;;;;;15.21;31.52;97691.81;107524;1257;59770;-62
2023/12/24 09:55:31;;;;;;;3.30;2.30;;;;;;;15.33;31.76;97694.43;107518;1255;72175;-62
2023/12/24 09:57:59;;;;;;;3.50;2.10;;;;;;;15.29;31.33;97695.69;108043;1252;68307;-62
2023/12/24 10:00:27;;;;;;;4.00;2.20;;;;;;;15.19;31.52;97695.90;108011;1253;73016;-61
2023/12/24 10:02:55;;;;;;;4.70;2.30;;;;;;;15.16;31.32;97698.11;107991;1252;60734;-66
2023/12/24 10:05:23;;;;;;;6.10;2.70;;;;;;;15.14;31.23;97694.05;108084;1253;59595;-65
2023/12/24 10:07:52;;;;;;;;;;;;;;;15.23;31.31;97694.98;108012;1253;72918;-63
2023/12/24 10:10:29;;;;;;;3.20;2.50;;;;;;;15.19;31.03;97696.91;108104;1255;71277;-63
2023/12/24 10:13:06;;;;;;;;;;;;;;;15.26;30.79;97702.54;108050;1252;72360;-63
2023/12/24 10:15:38;;;;;;;2.80;2.10;;;;;;;15.10;30.41;97701.70;108070;1255;60068;-63
2023/12/24 10:18:17;;;;;;;4.60;2.40;;;;;;;15.29;30.49;97692.63;108013;1253;59673;-62
2023/12/24 10:20:46;;;;;;;4.20;2.30;;;;;;;15.50;30.29;97689.09;108086;1253;71772;-62
2023/12/24 10:23:14;;;;;;;2.80;2.20;;;;;;;15.49;30.16;97693.98;108086;1253;69052;-63
2023/12/24 10:25:42;;;;;;;3.40;2.00;;;;;;;15.36;30.37;97701.00;108003;1253;72464;-62
2023/12/24 10:28:10;;;;;;;4.80;2.70;;;;;;;15.23;30.58;97703.09;108126;1253;60607;-63
2023/12/24 10:30:38;;;;;;;3.50;2.40;;;;;;;15.37;30.24;97694.20;108052;1253;59765;-63
2023/12/24 10:33:09;;;;;;;3.20;2.70;;;;;;;15.34;30.27;97697.36;107939;1252;72893;-62
2023/12/24 10:35:38;;;;;;;4.70;2.80;;;;;;;15.31;30.11;97697.23;108065;1253;70120;-63
2023/12/24 10:38:15;;;;;;;;;;;;;;;15.19;30.23;97703.52;107961;1254;73414;-64
2023/12/24 10:40:43;;;;;;;;;;;;;;;15.40;30.35;97699.04;107942;1253;61736;-63
2023/12/24 10:43:10;;;;;;;;;;;;;;;15.51;30.06;97708.79;108004;1254;59565;-63
2023/12/24 10:45:38;;;;;;;;;;;;;;;15.40;30.10;97704.67;107976;1256;72897;-64
2023/12/24 10:48:05;;;;;;;4.50;2.50;;;;;;;15.48;29.93;97708.33;107931;1255;69782;-62
2023/12/24 10:50:33;;;;;;;6.40;2.60;;;;;;;15.80;29.72;97709.62;108045;1254;72902;-62
2023/12/24 10:53:02;;;;;;;5.10;2.70;;;;;;;15.88;29.71;97711.00;107952;1254;60599;-64
2023/12/24 10:55:31;;;;;;;5.70;3.10;;;;;;;15.80;29.74;97713.04;108012;1253;60283;-64
2023/12/24 10:58:13;;;;;;;4.40;2.70;;;;;;;15.66;30.95;97717.45;107910;1256;73113;-64
2023/12/24 11:00:40;;;;;;;3.30;2.80;;;;;;;15.71;30.18;97723.69;107820;1254;69219;-62
2023/12/24 11:03:09;;;;;;;2.50;2.20;;;;;;;15.72;30.15;97729.96;107840;1254;72356;-63
2023/12/24 11:05:48;;;;;;;2.80;2.30;;;;;;;15.90;30.13;97728.88;107973;1254;59816;-64
2023/12/24 11:08:22;;;;;;;3.30;2.60;;;;;;;15.77;29.82;97737.08;108009;1254;59699;-62
2023/12/24 11:10:54;;;;;;;3.70;2.30;;;;;;;15.81;30.10;97740.07;108006;1254;72894;-63
2023/12/24 11:13:32;;;;;;;7.00;3.20;;;;;;;15.91;29.96;97749.60;108122;1255;69371;-64
2023/12/24 11:16:00;;;;;;;4.30;2.80;;;;;;;15.75;29.95;97745.04;107879;1254;71472;-63
2023/12/24 11:18:47;;;;;;;3.30;2.30;;;;;;;15.69;29.90;97754.26;108251;1253;61617;-62
2023/12/24 11:21:16;;;;;;;;;;;;;;;16.09;29.58;97752.83;108044;1255;60705;-65
2023/12/24 11:24:07;;;;;;;4.60;2.80;;;;;;;16.26;29.42;97752.98;107973;1254;72955;-62
2023/12/24 11:26:35;;;;;;;4.00;2.20;;;;;;;16.34;29.27;97757.45;107966;1254;68255;-61
2023/12/24 11:29:47;;;;;;;3.10;2.40;;;;;;;16.67;28.93;97745.48;107978;1254;72985;-62
2023/12/24 11:32:26;;;;;;;3.00;2.30;;;;;;;16.97;28.94;97753.23;107937;1255;60625;-62
2023/12/24 11:34:58;;;;;;;2.80;2.40;;;;;;;16.67;29.59;97759.62;108238;1256;60726;-63
2023/12/24 11:37:36;;;;;;;2.80;2.10;;;;;;;16.03;29.56;97762.10;108134;1254;72860;-62
2023/12/24 11:40:12;;;;;;;2.90;1.90;;;;;;;16.00;29.62;97760.89;107969;1255;68228;-62
2023/12/24 11:42:41;;;;;;;3.20;2.20;;;;;;;16.56;29.21;97768.61;108029;1255;71946;-59
2023/12/24 11:45:30;;;;;;;4.50;2.30;;;;;;;16.58;29.15;97769.83;107925;1256;60882;-62
2023/12/24 11:48:01;;;;;;;3.40;2.30;;;;;;;16.69;29.10;97769.31;107905;1256;58732;-61
2023/12/24 11:50:29;;;;;;;2.80;2.10;;;;;;;16.45;29.17;97771.83;108374;1252;73000;-61